createdAt,value
2019-06-08T00:01:34.431Z,100877.34
2019-06-08T00:04:06.238Z,100879.28
2019-06-08T00:06:37.937Z,100880.24
2019-06-08T00:09:09.665Z,100879.11
2019-06-08T00:11:41.334Z,100876.71
2019-06-08T00:14:13.174Z,100881.80
2019-06-08T00:16:44.950Z,100880.28
2019-06-08T00:19:17.395Z,100877.41
2019-06-08T00:21:49.187Z,100874.48
2019-06-08T00:24:21.900Z,100879.17
2019-06-08T00:26:54.673Z,100875.72
2019-06-08T00:29:26.498Z,100891.58
2019-06-08T00:31:58.313Z,100896.77
2019-06-08T00:34:30.130Z,100887.64
2019-06-08T00:37:01.815Z,100888.23
2019-06-08T00:39:33.478Z,100883.08
2019-06-08T00:42:05.193Z,100882.66
2019-06-08T00:44:37.012Z,100879.69
2019-06-08T00:47:08.860Z,100874.98
2019-06-08T00:49:40.622Z,100874.63
2019-06-08T00:52:12.378Z,100868.48
2019-06-08T00:54:44.190Z,100865.41
2019-06-08T00:57:15.973Z,100866.39
2019-06-08T00:59:47.821Z,100863.31
2019-06-08T01:02:20.395Z,100866.95
2019-06-08T01:04:52.597Z,100862.19
2019-06-08T01:07:24.494Z,100861.41
2019-06-08T01:09:56.448Z,100870.33
2019-06-08T01:12:29.022Z,100874.47
2019-06-08T01:15:01.169Z,100878.30
2019-06-08T01:17:33.021Z,100879.06
2019-06-08T01:20:06.832Z,100873.33
2019-06-08T01:22:38.508Z,100867.39
2019-06-08T01:25:10.190Z,100874.69
2019-06-08T01:27:41.998Z,100871.84
2019-06-08T01:30:17.932Z,100880.67
2019-06-08T01:32:49.712Z,100890.55
2019-06-08T01:35:22.883Z,100897.61
2019-06-08T01:37:54.888Z,100897.25
2019-06-08T01:40:27.494Z,100898.59
2019-06-08T01:42:59.594Z,100902.97
2019-06-08T01:45:32.800Z,100904.70
2019-06-08T01:48:19.544Z,100906.05
2019-06-08T01:50:39.776Z,100910.07
2019-06-08T01:53:11.583Z,100907.00
2019-06-08T01:55:43.465Z,100908.34
2019-06-08T01:58:15.484Z,100906.05
2019-06-08T02:00:47.202Z,100910.07
2019-06-08T02:03:19.359Z,100912.23
2019-06-08T02:05:51.351Z,100908.02
2019-06-08T02:08:24.384Z,100906.08
2019-06-08T02:10:56.527Z,100905.98
2019-06-08T02:13:28.894Z,100905.13
2019-06-08T02:16:00.871Z,100908.66
2019-06-08T02:18:45.741Z,100913.57
2019-06-08T02:21:06.598Z,100907.06
2019-06-08T02:23:39.614Z,100916.45
2019-06-08T02:26:11.632Z,100915.11
2019-06-08T02:28:43.338Z,100916.91
2019-06-08T02:31:15.312Z,100916.05
2019-06-08T02:33:47.670Z,100916.05
2019-06-08T02:36:19.444Z,100917.79
2019-06-08T02:38:51.306Z,100914.72
2019-06-08T02:41:23.209Z,100918.15
2019-06-08T02:43:55.309Z,100923.41
2019-06-08T02:46:29.044Z,100917.59
2019-06-08T02:49:04.583Z,100917.20
2019-06-08T02:51:36.412Z,100915.96
2019-06-08T02:54:08.274Z,100915.86
2019-06-08T02:56:41.083Z,100913.97
2019-06-08T02:59:14.817Z,100911.08
2019-06-08T03:01:46.968Z,100917.03
2019-06-08T03:04:18.756Z,100906.46
2019-06-08T03:06:50.973Z,100911.85
2019-06-08T03:09:22.826Z,100912.03
2019-06-08T03:11:55.622Z,100911.83
2019-06-08T03:14:31.039Z,100921.41
2019-06-08T03:17:03.116Z,100924.23
2019-06-08T03:19:35.660Z,100921.28
2019-06-08T03:22:10.913Z,100917.34
2019-06-08T03:24:44.066Z,100911.97
2019-06-08T03:27:15.656Z,100909.95
2019-06-08T03:29:47.426Z,100910.15
2019-06-08T03:32:20.317Z,100911.41
2019-06-08T03:34:56.442Z,100905.42
2019-06-08T03:37:25.507Z,100913.78
2019-06-08T03:39:57.273Z,100905.38
2019-06-08T03:42:28.975Z,100903.05
2019-06-08T03:45:00.769Z,100911.09
2019-06-08T03:47:32.570Z,100911.73
2019-06-08T03:50:05.692Z,100913.84
2019-06-08T03:52:38.194Z,100922.81
2019-06-08T03:55:10.865Z,100916.31
2019-06-08T03:57:44.089Z,100918.85
2019-06-08T04:00:16.023Z,100921.05
2019-06-08T04:02:47.823Z,100921.64
2019-06-08T04:05:19.649Z,100921.14
2019-06-08T04:07:51.399Z,100927.64
2019-06-08T04:10:23.245Z,100920.77
2019-06-08T04:12:55.017Z,100923.97
2019-06-08T04:15:26.875Z,100934.17
2019-06-08T04:17:58.735Z,100933.84
2019-06-08T04:20:30.840Z,100936.45
2019-06-08T04:23:02.536Z,100938.89
2019-06-08T04:25:34.430Z,100940.96
2019-06-08T04:28:06.144Z,100952.20
2019-06-08T04:30:38.732Z,100957.00
2019-06-08T04:33:10.744Z,100958.48
2019-06-08T04:35:44.707Z,100956.38
2019-06-08T04:38:17.153Z,100950.80
2019-06-08T04:40:50.091Z,100954.24
2019-06-08T04:43:23.038Z,100958.22
2019-06-08T04:45:54.856Z,100958.26
2019-06-08T04:48:26.601Z,100956.26
2019-06-08T04:50:58.261Z,100949.41
2019-06-08T04:53:30.328Z,100949.45
2019-06-08T04:56:03.745Z,100951.87
2019-06-08T04:58:35.431Z,100947.79
2019-06-08T05:01:07.091Z,100948.40
2019-06-08T05:03:39.377Z,100940.28
2019-06-08T05:06:12.489Z,100951.34
2019-06-08T05:08:45.245Z,100952.92
2019-06-08T05:11:17.375Z,100943.61
2019-06-08T05:13:49.863Z,100949.33
2019-06-08T05:16:21.948Z,100951.86
2019-06-08T05:18:53.677Z,100944.64
2019-06-08T05:21:25.513Z,100948.72
2019-06-08T05:23:58.952Z,100949.69
2019-06-08T05:26:30.870Z,100954.72
2019-06-08T05:29:02.709Z,100958.41
2019-06-08T05:31:34.519Z,100965.03
2019-06-08T05:34:06.195Z,100966.54
2019-06-08T05:36:39.291Z,100963.55
2019-06-08T05:39:11.221Z,100966.63
2019-06-08T05:41:43.474Z,100961.80
2019-06-08T05:44:15.322Z,100963.52
2019-06-08T05:46:47.942Z,100969.22
2019-06-08T05:49:19.826Z,100970.38
2019-06-08T05:51:51.652Z,100972.84
2019-06-08T05:54:23.324Z,100972.41
2019-06-08T05:56:55.261Z,100972.48
2019-06-08T05:59:26.994Z,100975.05
2019-06-08T06:01:58.873Z,100979.41
2019-06-08T06:04:30.688Z,100973.27
2019-06-08T06:07:03.517Z,100972.69
2019-06-08T06:09:35.291Z,100968.72
2019-06-08T06:12:07.756Z,100961.25
2019-06-08T06:14:40.672Z,100963.77
2019-06-08T06:17:13.615Z,100971.84
2019-06-08T06:19:45.282Z,100967.03
2019-06-08T06:22:17.029Z,100975.06
2019-06-08T06:24:49.723Z,100966.23
2019-06-08T06:27:21.679Z,100964.66
2019-06-08T06:29:53.459Z,100966.14
2019-06-08T06:32:25.250Z,100960.53
2019-06-08T06:34:57.011Z,100958.20
2019-06-08T06:37:28.728Z,100948.94
2019-06-08T06:40:00.528Z,100949.93
2019-06-08T06:42:32.258Z,100951.95
2019-06-08T06:45:06.907Z,100950.48
2019-06-08T06:47:38.729Z,100949.65
2019-06-08T06:50:10.566Z,100953.95
2019-06-08T06:52:42.740Z,100947.84
2019-06-08T06:55:15.567Z,100945.39
2019-06-08T06:57:47.418Z,100943.66
2019-06-08T07:00:30.604Z,100950.94
2019-06-08T07:03:02.485Z,100946.52
2019-06-08T07:05:34.231Z,100955.20
2019-06-08T07:08:06.037Z,100944.20
2019-06-08T07:10:38.623Z,100943.81
2019-06-08T07:13:10.368Z,100937.72
2019-06-08T07:15:42.146Z,100942.54
2019-06-08T07:18:14.035Z,100938.80
2019-06-08T07:20:46.131Z,100942.09
2019-06-08T07:23:18.051Z,100939.80
2019-06-08T07:25:50.452Z,100932.14
2019-06-08T07:28:22.323Z,100936.03
2019-06-08T07:30:54.893Z,100932.53
2019-06-08T07:33:26.870Z,100933.16
2019-06-08T07:35:59.850Z,100935.59
2019-06-08T07:38:31.823Z,100935.06
2019-06-08T07:41:03.693Z,100928.59
2019-06-08T07:43:35.712Z,100931.98
2019-06-08T07:46:07.529Z,100930.13
2019-06-08T07:48:39.794Z,100929.45
2019-06-08T07:51:11.613Z,100928.39
2019-06-08T07:53:43.372Z,100920.18
2019-06-08T07:56:15.466Z,100927.32
2019-06-08T07:58:49.511Z,100922.13
2019-06-08T08:01:35.226Z,100921.74
2019-06-08T08:03:55.986Z,100923.78
2019-06-08T08:06:30.523Z,100923.40
2019-06-08T08:09:01.802Z,100925.30
2019-06-08T08:11:35.141Z,100927.87
2019-06-08T08:14:07.033Z,100922.55
2019-06-08T08:16:39.183Z,100923.41
2019-06-08T08:19:10.961Z,100926.64
2019-06-08T08:21:42.724Z,100917.77
2019-06-08T08:24:17.260Z,100916.69
2019-06-08T08:26:59.760Z,100907.63
2019-06-08T08:29:31.452Z,100906.56
2019-06-08T08:32:03.269Z,100900.17
2019-06-08T08:34:35.171Z,100892.83
2019-06-08T08:37:09.490Z,100906.18
2019-06-08T08:39:40.603Z,100901.64
2019-06-08T08:42:12.442Z,100894.87
2019-06-08T08:44:44.308Z,100891.58
2019-06-08T08:47:18.524Z,100894.59
2019-06-08T08:49:50.646Z,100895.00
2019-06-08T08:52:34.547Z,100897.16
2019-06-08T08:55:00.370Z,100897.28
2019-06-08T08:57:33.944Z,100901.75
2019-06-08T09:00:08.549Z,100895.89
2019-06-08T09:02:40.018Z,100885.98
2019-06-08T09:05:13.220Z,100885.83
2019-06-08T09:07:44.960Z,100888.83
2019-06-08T09:10:18.279Z,100890.67
2019-06-08T09:12:52.162Z,100889.83
2019-06-08T09:15:31.433Z,100891.18
2019-06-08T09:18:07.957Z,100892.90
2019-06-08T09:20:48.494Z,100879.97
2019-06-08T09:23:28.139Z,100897.23
2019-06-08T09:26:28.916Z,100882.74
2019-06-08T09:29:21.048Z,100871.05
2019-06-08T09:32:10.956Z,100868.59
2019-06-08T09:34:56.302Z,100869.47
2019-06-08T09:38:01.161Z,100872.33
2019-06-08T09:40:50.644Z,100862.39
2019-06-08T09:43:23.840Z,100854.26
2019-06-08T09:48:50.821Z,100844.77
2019-06-08T09:51:23.681Z,100852.61
2019-06-08T09:56:53.586Z,100837.15
2019-06-08T09:59:33.817Z,100838.22
2019-06-08T10:02:12.395Z,100830.78
2019-06-08T10:04:42.167Z,100832.87
2019-06-08T10:07:14.548Z,100840.09
2019-06-08T10:09:47.405Z,100838.77
2019-06-08T10:12:20.395Z,100839.80
2019-06-08T10:14:52.094Z,100844.92
2019-06-08T10:17:23.872Z,100852.48
2019-06-08T10:19:58.844Z,100853.28
2019-06-08T10:22:29.134Z,100846.86
2019-06-08T10:25:05.350Z,100846.20
2019-06-08T10:27:34.367Z,100841.51
2019-06-08T10:30:09.928Z,100851.22
2019-06-08T10:32:40.797Z,100848.73
2019-06-08T10:35:12.512Z,100843.37
2019-06-08T10:37:44.215Z,100841.68
2019-06-08T10:40:18.558Z,100845.82
2019-06-08T10:42:49.451Z,100843.17
2019-06-08T10:45:22.502Z,100843.72
2019-06-08T10:47:54.217Z,100843.23
2019-06-08T10:50:28.681Z,100840.88
2019-06-08T10:53:02.827Z,100849.45
2019-06-08T10:55:33.145Z,100858.59
2019-06-08T10:58:06.576Z,100856.55
2019-06-08T11:00:38.898Z,100863.48
2019-06-08T11:03:11.901Z,100865.47
2019-06-08T11:05:43.754Z,100860.13
2019-06-08T11:08:15.601Z,100859.42
2019-06-08T11:10:47.572Z,100866.84
2019-06-08T11:13:19.258Z,100869.86
2019-06-08T11:15:51.112Z,100869.16
2019-06-08T11:18:22.865Z,100866.08
2019-06-08T11:20:54.641Z,100864.66
2019-06-08T11:23:28.615Z,100855.78
2019-06-08T11:26:04.592Z,100854.95
2019-06-08T11:28:33.557Z,100851.02
2019-06-08T11:31:08.433Z,100837.75
2019-06-08T11:33:39.759Z,100827.95
2019-06-08T11:36:14.648Z,100825.93
2019-06-08T11:38:44.987Z,100815.50
2019-06-08T11:41:18.960Z,100825.80
2019-06-08T11:43:50.208Z,100815.63
2019-06-08T11:46:22.255Z,100814.33
2019-06-08T11:48:54.040Z,100812.52
2019-06-08T11:51:29.592Z,100805.47
2019-06-08T11:53:59.727Z,100806.01
2019-06-08T11:56:32.771Z,100804.02
2019-06-08T11:59:05.246Z,100810.14
2019-06-08T12:01:38.010Z,100803.71
2019-06-08T12:04:09.967Z,100812.22
2019-06-08T12:06:41.801Z,100807.13
2019-06-08T12:09:14.090Z,100807.88
2019-06-08T12:11:48.010Z,100812.31
2019-06-08T12:14:19.418Z,100802.50
2019-06-08T12:16:51.234Z,100796.56
2019-06-08T12:19:23.118Z,100794.72
2019-06-08T12:21:57.837Z,100784.85
2019-06-08T12:24:41.444Z,100781.14
2019-06-08T12:27:10.512Z,100778.42
2019-06-08T12:29:35.963Z,100776.03
2019-06-08T12:32:09.383Z,100772.98
2019-06-08T12:34:41.329Z,100769.70
2019-06-08T12:37:17.206Z,100765.39
2019-06-08T12:39:48.551Z,100761.26
2019-06-08T12:42:24.608Z,100756.83
2019-06-08T12:44:53.342Z,100751.75
2019-06-08T12:47:27.402Z,100759.27
2019-06-08T12:49:58.650Z,100745.12
2019-06-08T12:52:30.456Z,100746.99
2019-06-08T12:55:06.871Z,100741.20
2019-06-08T12:57:35.960Z,100736.61
2019-06-08T13:00:09.867Z,100729.67
2019-06-08T13:02:41.533Z,100736.81
2019-06-08T13:05:16.437Z,100727.67
2019-06-08T13:07:47.501Z,100730.23
2019-06-08T13:10:23.516Z,100731.08
2019-06-08T13:12:53.029Z,100734.16
2019-06-08T13:15:24.837Z,100732.80
2019-06-08T13:17:58.645Z,100727.37
2019-06-08T13:20:30.148Z,100738.63
2019-06-08T13:23:02.021Z,100729.13
2019-06-08T13:25:40.359Z,100732.80
2019-06-08T13:28:12.252Z,100729.03
2019-06-08T13:30:40.858Z,100727.83
2019-06-08T13:33:14.029Z,100727.26
2019-06-08T13:35:47.988Z,100722.13
2019-06-08T13:38:22.988Z,100722.65
2019-06-08T13:40:54.266Z,100718.06
2019-06-08T13:43:26.127Z,100718.75
2019-06-08T13:45:58.972Z,100711.69
2019-06-08T13:48:30.654Z,100713.05
2019-06-08T13:51:02.345Z,100706.31
2019-06-08T13:53:34.062Z,100709.11
2019-06-08T13:56:07.813Z,100706.45
2019-06-08T13:58:39.296Z,100706.98
2019-06-08T14:01:11.113Z,100706.83
2019-06-08T14:03:42.969Z,100704.83
2019-06-08T14:06:15.928Z,100701.44
2019-06-08T14:08:49.852Z,100709.59
2019-06-08T14:11:22.628Z,100707.91
2019-06-08T14:13:55.089Z,100706.88
2019-06-08T14:16:29.381Z,100704.83
2019-06-08T14:19:00.395Z,100703.83
2019-06-08T14:21:40.966Z,100707.91
2019-06-08T14:24:07.777Z,100701.59
2019-06-08T14:26:39.035Z,100703.11
2019-06-08T14:29:11.797Z,100707.50
2019-06-08T14:31:43.629Z,100709.16
2019-06-08T14:34:18.644Z,100716.23
2019-06-08T14:36:50.288Z,100716.30
2019-06-08T14:39:23.155Z,100717.27
2019-06-08T14:41:57.692Z,100719.36
2019-06-08T14:44:32.130Z,100719.61
2019-06-08T14:47:08.069Z,100728.00
2019-06-08T14:49:39.563Z,100727.22
2019-06-08T14:52:11.197Z,100725.75
2019-06-08T14:54:42.979Z,100728.03
2019-06-08T14:57:14.735Z,100730.59
2019-06-08T14:59:50.087Z,100732.03
2019-06-08T15:02:21.107Z,100741.83
2019-06-08T15:04:52.966Z,100739.27
2019-06-08T15:07:26.144Z,100752.10
2019-06-08T15:09:58.213Z,100752.41
2019-06-08T15:12:31.413Z,100753.61
2019-06-08T15:15:03.348Z,100752.41
2019-06-08T15:17:35.172Z,100763.25
2019-06-08T15:20:08.868Z,100773.41
2019-06-08T15:22:40.686Z,100775.39
2019-06-08T15:25:12.482Z,100773.63
2019-06-08T15:27:44.235Z,100769.76
2019-06-08T15:30:17.883Z,100775.84
2019-06-08T15:32:49.452Z,100773.42
2019-06-08T15:35:21.182Z,100772.98
2019-06-08T15:37:52.874Z,100772.25
2019-06-08T15:40:25.845Z,100772.55
2019-06-08T15:42:58.571Z,100770.61
2019-06-08T15:45:32.581Z,100775.84
2019-06-08T15:48:03.859Z,100783.36
2019-06-08T15:50:37.702Z,100772.66
2019-06-08T15:53:08.901Z,100776.50
2019-06-08T15:55:40.593Z,100781.00
2019-06-08T15:58:12.429Z,100786.42
2019-06-08T16:00:44.067Z,100782.28
2019-06-08T16:03:15.817Z,100785.25
2019-06-08T16:05:47.431Z,100775.06
2019-06-08T16:08:19.190Z,100785.53
2019-06-08T16:10:51.028Z,100781.77
2019-06-08T16:13:22.724Z,100780.18
2019-06-08T16:15:54.442Z,100783.66
2019-06-08T16:18:27.377Z,100789.36
2019-06-08T16:20:59.735Z,100784.89
2019-06-08T16:23:31.850Z,100786.98
2019-06-08T16:26:03.790Z,100792.84
2019-06-08T16:28:36.299Z,100802.44
2019-06-08T16:31:09.213Z,100799.87
2019-06-08T16:33:44.020Z,100801.37
2019-06-08T16:36:14.406Z,100800.80
2019-06-08T16:38:46.086Z,100799.67
2019-06-08T16:41:17.825Z,100794.53
2019-06-08T16:43:49.508Z,100805.00
2019-06-08T16:46:21.305Z,100812.05
2019-06-08T16:48:53.249Z,100805.56
2019-06-08T16:51:25.065Z,100800.42
2019-06-08T16:53:56.821Z,100798.98
2019-06-08T16:56:29.857Z,100808.85
2019-06-08T16:59:01.876Z,100803.48
2019-06-08T17:01:34.752Z,100798.63
2019-06-08T17:04:07.697Z,100807.00
2019-06-08T17:06:39.524Z,100800.14
2019-06-08T17:09:11.312Z,100805.83
2019-06-08T17:11:43.225Z,100805.88
2019-06-08T17:14:15.003Z,100800.88
2019-06-08T17:16:46.691Z,100799.67
2019-06-08T17:19:18.424Z,100798.97
2019-06-08T17:21:50.161Z,100806.15
2019-06-08T17:24:22.039Z,100797.33
2019-06-08T17:26:53.887Z,100811.50
2019-06-08T17:29:25.679Z,100803.92
2019-06-08T17:31:57.374Z,100801.73
2019-06-08T17:34:29.157Z,100805.48
2019-06-08T17:37:00.902Z,100804.77
2019-06-08T17:39:33.740Z,100803.92
2019-06-08T17:42:05.697Z,100801.72
2019-06-08T17:44:38.326Z,100804.45
2019-06-08T17:47:10.156Z,100805.82
2019-06-08T17:49:43.311Z,100806.22
2019-06-08T17:52:15.196Z,100805.60
2019-06-08T17:54:49.546Z,100809.55
2019-06-08T17:57:21.328Z,100806.73
2019-06-08T17:59:53.079Z,100810.05
2019-06-08T18:02:28.142Z,100823.10
2019-06-08T18:04:58.250Z,100819.27
2019-06-08T18:07:30.044Z,100832.67
2019-06-08T18:10:02.780Z,100828.53
2019-06-08T18:12:35.974Z,100823.95
2019-06-08T18:15:08.431Z,100830.09
2019-06-08T18:17:42.161Z,100835.75
2019-06-08T18:20:17.540Z,100830.83
2019-06-08T18:22:49.389Z,100823.00
2019-06-08T18:25:21.886Z,100826.81
2019-06-08T18:28:06.603Z,100836.14
2019-06-08T18:30:27.642Z,100842.39
2019-06-08T18:32:59.937Z,100841.42
2019-06-08T18:35:31.679Z,100852.22
2019-06-08T18:38:03.543Z,100846.31
2019-06-08T18:40:37.593Z,100842.77
2019-06-08T18:43:09.279Z,100845.06
2019-06-08T18:45:42.778Z,100846.91
2019-06-08T18:48:14.473Z,100853.15
2019-06-08T18:50:48.502Z,100854.75
2019-06-08T18:53:19.723Z,100849.56
2019-06-08T18:55:51.577Z,100866.00
2019-06-08T18:58:25.063Z,100864.90
2019-06-08T19:00:57.564Z,100871.51
2019-06-08T19:03:29.534Z,100869.66
2019-06-08T19:06:01.297Z,100875.03
2019-06-08T19:08:33.119Z,100865.84
2019-06-08T19:11:04.823Z,100865.20
2019-06-08T19:13:37.899Z,100873.91
2019-06-08T19:16:11.472Z,100884.56
2019-06-08T19:18:47.746Z,100889.58
2019-06-08T19:21:17.818Z,100887.47
2019-06-08T19:23:50.480Z,100881.73
2019-06-08T19:26:23.358Z,100881.59
2019-06-08T19:28:55.114Z,100888.80
2019-06-08T19:31:27.689Z,100889.05
2019-06-08T19:33:59.628Z,100894.52
2019-06-08T19:36:31.375Z,100898.05
2019-06-08T19:39:03.630Z,100897.91
2019-06-08T19:41:38.110Z,100898.52
2019-06-08T19:44:09.339Z,100900.19
2019-06-08T19:46:42.378Z,100909.48
2019-06-08T19:49:14.168Z,100915.99
2019-06-08T19:51:48.489Z,100909.11
2019-06-08T19:54:19.595Z,100913.36
2019-06-08T19:56:53.996Z,100916.28
2019-06-08T19:59:27.215Z,100907.33
2019-06-08T20:01:59.889Z,100903.87
2019-06-08T20:04:32.043Z,100910.07
2019-06-08T20:07:03.787Z,100907.23
2019-06-08T20:09:37.638Z,100925.09
2019-06-08T20:12:09.724Z,100928.48
2019-06-08T20:14:41.547Z,100926.98
2019-06-08T20:17:13.229Z,100936.60
2019-06-08T20:19:44.872Z,100932.41
2019-06-08T20:22:18.381Z,100929.56
2019-06-08T20:24:55.358Z,100930.30
2019-06-08T20:27:24.247Z,100927.33
2019-06-08T20:29:58.028Z,100923.14
2019-06-08T20:32:29.352Z,100927.75
2019-06-08T20:35:01.155Z,100927.98
2019-06-08T20:37:32.901Z,100921.94
2019-06-08T20:40:13.254Z,100925.52
2019-06-08T20:42:39.199Z,100922.05
2019-06-08T20:45:10.882Z,100917.28
2019-06-08T20:47:42.551Z,100912.48
2019-06-08T20:50:14.310Z,100905.40
2019-06-08T20:52:47.252Z,100905.97
2019-06-08T20:55:19.516Z,100902.55
2019-06-08T20:57:52.360Z,100900.44
2019-06-08T21:00:24.181Z,100898.70
2019-06-08T21:03:02.530Z,100895.28
2019-06-08T21:05:29.386Z,100899.81
2019-06-08T21:08:01.211Z,100898.93
2019-06-08T21:10:33.021Z,100896.24
2019-06-08T21:13:07.146Z,100889.52
2019-06-08T21:15:38.467Z,100897.97
2019-06-08T21:18:10.223Z,100898.36
2019-06-08T21:20:42.046Z,100905.77
2019-06-08T21:23:14.034Z,100903.69
2019-06-08T21:25:47.105Z,100908.42
2019-06-08T21:28:19.075Z,100912.30
2019-06-08T21:30:55.263Z,100910.80
2019-06-08T21:33:24.299Z,100914.16
2019-06-08T21:36:03.482Z,100918.92
2019-06-08T21:38:29.607Z,100917.77
2019-06-08T21:41:02.912Z,100915.16
2019-06-08T21:43:37.267Z,100921.03
2019-06-08T21:46:08.410Z,100916.26
2019-06-08T21:48:40.243Z,100917.22
2019-06-08T21:51:11.982Z,100912.69
2019-06-08T21:53:43.797Z,100914.80
2019-06-08T21:56:18.062Z,100900.69
2019-06-08T21:58:50.297Z,100905.91
2019-06-08T22:01:22.929Z,100908.05
2019-06-08T22:03:55.930Z,100913.09
2019-06-08T22:06:28.374Z,100916.80
2019-06-08T22:09:01.258Z,100914.16
2019-06-08T22:11:37.484Z,100918.02
2019-06-08T22:14:08.684Z,100910.67
2019-06-08T22:16:40.570Z,100906.36
2019-06-08T22:19:12.398Z,100906.55
2019-06-08T22:21:44.171Z,100899.08
2019-06-08T22:24:17.158Z,100917.55
2019-06-08T22:26:49.067Z,100921.20
2019-06-08T22:29:20.760Z,100927.35
2019-06-08T22:31:53.715Z,100938.67
2019-06-08T22:34:28.026Z,100940.23
2019-06-08T22:37:00.451Z,100942.73
2019-06-08T22:39:32.478Z,100938.53
2019-06-08T22:42:04.246Z,100933.37
2019-06-08T22:44:37.548Z,100930.86
2019-06-08T22:47:09.611Z,100904.98
2019-06-08T22:49:41.453Z,100925.40
2019-06-08T22:52:14.409Z,100924.36
2019-06-08T22:54:47.672Z,100928.41
2019-06-08T22:57:19.453Z,100932.03
2019-06-08T22:59:51.124Z,100928.48
2019-06-08T23:02:22.917Z,100922.56
2019-06-08T23:04:55.192Z,100915.57
2019-06-08T23:07:32.443Z,100927.06
2019-06-08T23:10:03.931Z,100930.24
2019-06-08T23:12:34.890Z,100930.80
2019-06-08T23:15:08.039Z,100931.69
2019-06-08T23:17:39.886Z,100932.83
2019-06-08T23:20:11.708Z,100935.30
2019-06-08T23:22:43.396Z,100932.52
2019-06-08T23:25:15.160Z,100941.71
2019-06-08T23:27:48.411Z,100938.86
2019-06-08T23:30:20.468Z,100944.58
2019-06-08T23:32:52.331Z,100950.73
2019-06-08T23:35:24.274Z,100957.84
2019-06-08T23:37:56.847Z,100965.11
2019-06-08T23:40:28.768Z,100967.05
2019-06-08T23:43:01.610Z,100968.84
2019-06-08T23:45:34.320Z,100972.41
2019-06-08T23:48:06.704Z,100966.06
2019-06-08T23:50:38.796Z,100969.73
2019-06-08T23:53:10.993Z,100970.78
2019-06-08T23:55:42.816Z,100981.61
2019-06-08T23:58:17.250Z,100972.39
